Sikes, Louisiana
Current Conditions -  °F | °C
As of 11:35 AM on Wednesday 26 Nov 2014 (Local Time) from KRSN Reporting Station
Clear Clear  
Wind Chill: 63°   Ceiling: Unl
Heat Index: 63°   Visibility: 10mi
Dew Point: 36°   Wind: 10mph
Humidity: 36%   Direction: 230°SW
Pressure: 30.12"   Gusts: 20mph
Location:  32.08°N, 92.49°W
Report Text: KRSN 261735Z AUTO 23009G17KT 200V260 10SM CLR 17/02 A3012 RMK AO2 T01720021
Loading
Personal Weather Stations






























Interactive Weather Map New forecast layout! Learn more

10-Day Weather Forecast

Advertisements
Track Severe Weather on mobile